Search for airport 
image banner adimage banner ad
image banner ad

LROD - Oradea

Located in Oradea, Romania

ICAO - LROD, IATA - OMR

Data provided by Airmate  

General information

Coordinates: N47°1'31" E21°54'9"
Elevation is 468 feet MSL.
Magnetic variation is 4° East
View others Airports in Bihor

Operational data

Open for public use
Current time UTC:
Current local time:
Weather
METAR: LROD 230730Z 10006KT 070V130 CAVOK 20/11 Q1013
TAF: TAF LROD 230500Z 2306/2315 09006KT CAVOK BECMG 2308/2309 16010KT
View NOTAMs / SUP AIP / TFR affecting this airport [VIEW]
Communications frequencies: [VIEW]

Runways:

RWY identifierQFULength (ft)Width (ft)SurfaceLDA (ft)
0111°6890148CONC6398
19191°6890148CONC6398

Airport contact information

Address: Oradea Romania

Satellite view of LROD